sensor_id;sensor_type;location;lat;lon;timestamp;temperature;humidity
43561;DHT22;32305;46.410;17.394;2023-05-18T00:01:22;22.00;48.20
43561;DHT22;32305;46.410;17.394;2023-05-18T00:03:49;22.10;48.20
43561;DHT22;32305;46.410;17.394;2023-05-18T00:06:20;22.10;48.30
43561;DHT22;32305;46.410;17.394;2023-05-18T00:08:48;22.10;48.30
43561;DHT22;32305;46.410;17.394;2023-05-18T00:11:16;22.10;48.30
43561;DHT22;32305;46.410;17.394;2023-05-18T00:13:43;22.00;48.30
43561;DHT22;32305;46.410;17.394;2023-05-18T00:16:10;22.00;48.30
43561;DHT22;32305;46.410;17.394;2023-05-18T00:18:40;22.00;48.40
43561;DHT22;32305;46.410;17.394;2023-05-18T00:21:07;22.00;48.40
43561;DHT22;32305;46.410;17.394;2023-05-18T00:23:34;22.00;48.40
43561;DHT22;32305;46.410;17.394;2023-05-18T00:26:05;22.00;48.40
43561;DHT22;32305;46.410;17.394;2023-05-18T00:28:32;22.00;48.40
43561;DHT22;32305;46.410;17.394;2023-05-18T00:31:00;22.00;48.40
43561;DHT22;32305;46.410;17.394;2023-05-18T00:33:27;22.00;48.40
43561;DHT22;32305;46.410;17.394;2023-05-18T00:35:54;22.10;48.40
43561;DHT22;32305;46.410;17.394;2023-05-18T00:38:23;22.10;48.30
43561;DHT22;32305;46.410;17.394;2023-05-18T00:40:50;22.10;48.30
43561;DHT22;32305;46.410;17.394;2023-05-18T00:43:18;22.10;48.30
43561;DHT22;32305;46.410;17.394;2023-05-18T00:45:45;22.10;48.20
43561;DHT22;32305;46.410;17.394;2023-05-18T00:48:13;22.10;48.30
43561;DHT22;32305;46.410;17.394;2023-05-18T00:50:40;22.00;48.20
43561;DHT22;32305;46.410;17.394;2023-05-18T00:53:07;22.10;48.20
43561;DHT22;32305;46.410;17.394;2023-05-18T00:55:37;22.10;48.20
43561;DHT22;32305;46.410;17.394;2023-05-18T00:58:04;22.10;48.20
43561;DHT22;32305;46.410;17.394;2023-05-18T01:00:32;22.10;48.20
43561;DHT22;32305;46.410;17.394;2023-05-18T01:02:59;22.10;48.20
43561;DHT22;32305;46.410;17.394;2023-05-18T01:05:28;22.10;48.20
43561;DHT22;32305;46.410;17.394;2023-05-18T01:07:56;22.10;48.20
43561;DHT22;32305;46.410;17.394;2023-05-18T01:10:23;22.10;48.20
43561;DHT22;32305;46.410;17.394;2023-05-18T01:12:59;22.10;48.20
43561;DHT22;32305;46.410;17.394;2023-05-18T01:15:34;22.10;48.20
43561;DHT22;32305;46.410;17.394;2023-05-18T01:18:21;22.10;48.20
43561;DHT22;32305;46.410;17.394;2023-05-18T01:21:22;22.10;48.20
43561;DHT22;32305;46.410;17.394;2023-05-18T01:24:22;22.10;48.10
43561;DHT22;32305;46.410;17.394;2023-05-18T01:26:52;22.00;48.10
43561;DHT22;32305;46.410;17.394;2023-05-18T01:29:25;22.00;48.20
43561;DHT22;32305;46.410;17.394;2023-05-18T01:31:57;22.00;48.20
43561;DHT22;32305;46.410;17.394;2023-05-18T01:34:24;22.00;48.20
43561;DHT22;32305;46.410;17.394;2023-05-18T01:36:51;22.00;48.10
43561;DHT22;32305;46.410;17.394;2023-05-18T01:39:18;22.00;48.70
43561;DHT22;32305;46.410;17.394;2023-05-18T01:41:58;22.00;48.10
43561;DHT22;32305;46.410;17.394;2023-05-18T01:44:42;22.00;48.20
43561;DHT22;32305;46.410;17.394;2023-05-18T01:47:15;22.00;48.10
43561;DHT22;32305;46.410;17.394;2023-05-18T01:50:03;22.00;48.10
43561;DHT22;32305;46.410;17.394;2023-05-18T01:55:24;22.00;48.10
43561;DHT22;32305;46.410;17.394;2023-05-18T01:57:53;22.00;48.10
43561;DHT22;32305;46.410;17.394;2023-05-18T02:00:22;22.00;48.10
43561;DHT22;32305;46.410;17.394;2023-05-18T02:02:50;22.00;48.10
43561;DHT22;32305;46.410;17.394;2023-05-18T02:05:17;22.00;48.20
43561;DHT22;32305;46.410;17.394;2023-05-18T02:07:45;22.00;48.30
43561;DHT22;32305;46.410;17.394;2023-05-18T02:10:13;22.00;48.30
43561;DHT22;32305;46.410;17.394;2023-05-18T02:12:41;22.00;48.30
43561;DHT22;32305;46.410;17.394;2023-05-18T02:15:08;22.00;48.30
43561;DHT22;32305;46.410;17.394;2023-05-18T02:17:36;22.00;48.30
43561;DHT22;32305;46.410;17.394;2023-05-18T02:20:05;22.00;48.40
43561;DHT22;32305;46.410;17.394;2023-05-18T02:22:33;22.00;48.40
43561;DHT22;32305;46.410;17.394;2023-05-18T02:25:01;22.00;48.50
43561;DHT22;32305;46.410;17.394;2023-05-18T02:27:28;22.00;48.30
43561;DHT22;32305;46.410;17.394;2023-05-18T02:29:55;22.00;48.20
43561;DHT22;32305;46.410;17.394;2023-05-18T02:32:23;22.00;48.10
43561;DHT22;32305;46.410;17.394;2023-05-18T02:34:51;22.00;48.00
43561;DHT22;32305;46.410;17.394;2023-05-18T02:37:19;22.00;48.00
43561;DHT22;32305;46.410;17.394;2023-05-18T02:39:49;22.00;48.00
43561;DHT22;32305;46.410;17.394;2023-05-18T02:42:16;22.00;48.00
43561;DHT22;32305;46.410;17.394;2023-05-18T02:44:43;22.00;48.00
43561;DHT22;32305;46.410;17.394;2023-05-18T02:47:10;22.00;48.00
43561;DHT22;32305;46.410;17.394;2023-05-18T02:49:37;22.00;48.00
43561;DHT22;32305;46.410;17.394;2023-05-18T02:52:05;22.00;48.10
43561;DHT22;32305;46.410;17.394;2023-05-18T02:54:32;22.00;48.10
43561;DHT22;32305;46.410;17.394;2023-05-18T02:56:59;22.00;48.10
43561;DHT22;32305;46.410;17.394;2023-05-18T02:59:26;22.00;48.00
43561;DHT22;32305;46.410;17.394;2023-05-18T03:01:53;22.00;48.00
43561;DHT22;32305;46.410;17.394;2023-05-18T03:04:20;22.00;48.00
43561;DHT22;32305;46.410;17.394;2023-05-18T03:06:47;22.00;48.00
43561;DHT22;32305;46.410;17.394;2023-05-18T03:09:18;22.00;48.10
43561;DHT22;32305;46.410;17.394;2023-05-18T03:11:46;22.00;48.00
43561;DHT22;32305;46.410;17.394;2023-05-18T03:14:13;22.00;48.00
43561;DHT22;32305;46.410;17.394;2023-05-18T03:16:41;22.00;48.00
43561;DHT22;32305;46.410;17.394;2023-05-18T03:19:08;22.00;48.00
43561;DHT22;32305;46.410;17.394;2023-05-18T03:21:35;22.00;48.00
43561;DHT22;32305;46.410;17.394;2023-05-18T03:24:03;22.00;48.00
43561;DHT22;32305;46.410;17.394;2023-05-18T03:26:30;22.00;48.00
43561;DHT22;32305;46.410;17.394;2023-05-18T03:28:58;22.00;48.10
43561;DHT22;32305;46.410;17.394;2023-05-18T03:31:25;22.00;48.00
43561;DHT22;32305;46.410;17.394;2023-05-18T03:33:52;22.00;48.10
43561;DHT22;32305;46.410;17.394;2023-05-18T03:36:20;22.00;48.10
43561;DHT22;32305;46.410;17.394;2023-05-18T03:38:48;22.00;48.00
43561;DHT22;32305;46.410;17.394;2023-05-18T03:41:15;22.00;48.10
43561;DHT22;32305;46.410;17.394;2023-05-18T03:43:42;22.00;48.00
43561;DHT22;32305;46.410;17.394;2023-05-18T03:46:09;22.00;48.00
43561;DHT22;32305;46.410;17.394;2023-05-18T03:48:37;22.00;48.10
43561;DHT22;32305;46.410;17.394;2023-05-18T03:51:04;22.00;48.00
43561;DHT22;32305;46.410;17.394;2023-05-18T03:53:32;22.00;48.00
43561;DHT22;32305;46.410;17.394;2023-05-18T03:55:59;22.00;48.00
43561;DHT22;32305;46.410;17.394;2023-05-18T03:58:27;22.00;48.00
43561;DHT22;32305;46.410;17.394;2023-05-18T04:00:55;22.00;48.00
43561;DHT22;32305;46.410;17.394;2023-05-18T04:03:22;22.00;48.00
43561;DHT22;32305;46.410;17.394;2023-05-18T04:05:51;22.00;48.00
43561;DHT22;32305;46.410;17.394;2023-05-18T04:08:19;22.00;48.10
43561;DHT22;32305;46.410;17.394;2023-05-18T04:10:46;22.00;48.10
43561;DHT22;32305;46.410;17.394;2023-05-18T04:13:14;22.00;48.20
43561;DHT22;32305;46.410;17.394;2023-05-18T04:15:41;21.90;48.10
43561;DHT22;32305;46.410;17.394;2023-05-18T04:18:09;21.90;48.20
43561;DHT22;32305;46.410;17.394;2023-05-18T04:20:36;21.90;48.20
43561;DHT22;32305;46.410;17.394;2023-05-18T04:23:08;22.00;48.20
43561;DHT22;32305;46.410;17.394;2023-05-18T04:25:36;22.00;48.10
43561;DHT22;32305;46.410;17.394;2023-05-18T04:28:05;22.00;48.00
43561;DHT22;32305;46.410;17.394;2023-05-18T04:30:32;22.00;48.10
43561;DHT22;32305;46.410;17.394;2023-05-18T04:33:02;22.00;48.00
43561;DHT22;32305;46.410;17.394;2023-05-18T04:35:30;22.00;48.60
43561;DHT22;32305;46.410;17.394;2023-05-18T04:37:57;22.00;47.90
43561;DHT22;32305;46.410;17.394;2023-05-18T04:40:25;22.00;47.80
43561;DHT22;32305;46.410;17.394;2023-05-18T04:42:52;22.00;47.70
43561;DHT22;32305;46.410;17.394;2023-05-18T04:45:20;22.00;47.70
43561;DHT22;32305;46.410;17.394;2023-05-18T04:47:48;22.00;47.80
43561;DHT22;32305;46.410;17.394;2023-05-18T04:50:20;22.00;47.80
43561;DHT22;32305;46.410;17.394;2023-05-18T04:52:51;22.00;47.80
43561;DHT22;32305;46.410;17.394;2023-05-18T04:55:19;22.00;47.80
43561;DHT22;32305;46.410;17.394;2023-05-18T04:57:54;22.00;47.80
43561;DHT22;32305;46.410;17.394;2023-05-18T05:00:27;22.00;47.80
43561;DHT22;32305;46.410;17.394;2023-05-18T05:02:55;22.00;47.70
43561;DHT22;32305;46.410;17.394;2023-05-18T05:05:23;21.90;47.60
43561;DHT22;32305;46.410;17.394;2023-05-18T05:07:52;22.00;47.60
43561;DHT22;32305;46.410;17.394;2023-05-18T05:10:19;22.00;47.60
43561;DHT22;32305;46.410;17.394;2023-05-18T05:12:48;21.90;47.70
43561;DHT22;32305;46.410;17.394;2023-05-18T05:15:16;21.90;47.60
43561;DHT22;32305;46.410;17.394;2023-05-18T05:17:45;21.90;47.60
43561;DHT22;32305;46.410;17.394;2023-05-18T05:20:13;21.90;47.50
43561;DHT22;32305;46.410;17.394;2023-05-18T05:22:40;22.00;47.70
43561;DHT22;32305;46.410;17.394;2023-05-18T05:25:07;22.00;47.90
43561;DHT22;32305;46.410;17.394;2023-05-18T05:27:35;22.00;48.00
43561;DHT22;32305;46.410;17.394;2023-05-18T05:30:03;22.00;48.20
43561;DHT22;32305;46.410;17.394;2023-05-18T05:32:30;22.00;48.30
43561;DHT22;32305;46.410;17.394;2023-05-18T05:34:58;22.00;48.30
43561;DHT22;32305;46.410;17.394;2023-05-18T05:37:25;22.00;48.30
43561;DHT22;32305;46.410;17.394;2023-05-18T05:39:53;22.00;48.30
43561;DHT22;32305;46.410;17.394;2023-05-18T05:42:22;22.00;48.20
43561;DHT22;32305;46.410;17.394;2023-05-18T05:44:49;22.10;48.20
43561;DHT22;32305;46.410;17.394;2023-05-18T05:47:16;22.00;48.20
43561;DHT22;32305;46.410;17.394;2023-05-18T05:49:43;22.10;48.10
43561;DHT22;32305;46.410;17.394;2023-05-18T05:52:11;22.10;47.90
43561;DHT22;32305;46.410;17.394;2023-05-18T05:54:40;22.10;47.70
43561;DHT22;32305;46.410;17.394;2023-05-18T05:57:07;22.20;47.60
43561;DHT22;32305;46.410;17.394;2023-05-18T05:59:34;22.10;47.40
43561;DHT22;32305;46.410;17.394;2023-05-18T06:02:01;22.20;47.40
43561;DHT22;32305;46.410;17.394;2023-05-18T06:04:29;22.10;47.30
43561;DHT22;32305;46.410;17.394;2023-05-18T06:06:57;22.20;47.30
43561;DHT22;32305;46.410;17.394;2023-05-18T06:09:24;22.20;47.30
43561;DHT22;32305;46.410;17.394;2023-05-18T06:11:51;22.20;47.40
43561;DHT22;32305;46.410;17.394;2023-05-18T06:14:18;22.30;47.60
43561;DHT22;32305;46.410;17.394;2023-05-18T06:16:46;22.30;47.60
43561;DHT22;32305;46.410;17.394;2023-05-18T06:19:14;22.30;47.70
43561;DHT22;32305;46.410;17.394;2023-05-18T06:21:42;22.40;47.80
43561;DHT22;32305;46.410;17.394;2023-05-18T06:24:10;22.40;47.70
43561;DHT22;32305;46.410;17.394;2023-05-18T06:26:37;22.50;47.70
43561;DHT22;32305;46.410;17.394;2023-05-18T06:29:05;22.50;47.70
43561;DHT22;32305;46.410;17.394;2023-05-18T06:31:34;22.60;47.70
43561;DHT22;32305;46.410;17.394;2023-05-18T06:34:02;22.60;47.70
43561;DHT22;32305;46.410;17.394;2023-05-18T06:36:29;22.60;47.80
43561;DHT22;32305;46.410;17.394;2023-05-18T06:38:57;22.70;47.70
43561;DHT22;32305;46.410;17.394;2023-05-18T06:41:25;22.70;47.60
43561;DHT22;32305;46.410;17.394;2023-05-18T06:43:52;22.70;47.50
43561;DHT22;32305;46.410;17.394;2023-05-18T06:46:21;22.70;47.50
43561;DHT22;32305;46.410;17.394;2023-05-18T06:48:49;22.70;47.40
43561;DHT22;32305;46.410;17.394;2023-05-18T06:51:17;22.80;47.30
43561;DHT22;32305;46.410;17.394;2023-05-18T06:53:45;22.70;46.20
43561;DHT22;32305;46.410;17.394;2023-05-18T06:56:12;22.70;45.30
43561;DHT22;32305;46.410;17.394;2023-05-18T06:58:41;22.60;46.00
43561;DHT22;32305;46.410;17.394;2023-05-18T07:01:09;22.60;46.30
43561;DHT22;32305;46.410;17.394;2023-05-18T07:03:36;22.60;46.50
43561;DHT22;32305;46.410;17.394;2023-05-18T07:06:04;22.60;46.60
43561;DHT22;32305;46.410;17.394;2023-05-18T07:08:32;22.60;46.70
43561;DHT22;32305;46.410;17.394;2023-05-18T07:10:59;22.70;46.80
43561;DHT22;32305;46.410;17.394;2023-05-18T07:13:28;22.70;46.80
43561;DHT22;32305;46.410;17.394;2023-05-18T07:15:56;22.70;46.90
43561;DHT22;32305;46.410;17.394;2023-05-18T07:18:23;22.70;46.80
43561;DHT22;32305;46.410;17.394;2023-05-18T07:20:50;22.70;44.70
43561;DHT22;32305;46.410;17.394;2023-05-18T07:23:18;22.60;44.50
43561;DHT22;32305;46.410;17.394;2023-05-18T07:25:45;22.50;44.60
43561;DHT22;32305;46.410;17.394;2023-05-18T07:28:12;22.40;45.40
43561;DHT22;32305;46.410;17.394;2023-05-18T07:30:40;22.30;45.20
43561;DHT22;32305;46.410;17.394;2023-05-18T07:33:07;22.30;45.80
43561;DHT22;32305;46.410;17.394;2023-05-18T07:35:35;22.20;46.30
43561;DHT22;32305;46.410;17.394;2023-05-18T07:38:02;22.30;46.70
43561;DHT22;32305;46.410;17.394;2023-05-18T07:40:29;22.30;46.80
43561;DHT22;32305;46.410;17.394;2023-05-18T07:42:57;22.40;46.90
43561;DHT22;32305;46.410;17.394;2023-05-18T07:45:24;22.40;46.90
43561;DHT22;32305;46.410;17.394;2023-05-18T07:47:52;22.50;47.00
43561;DHT22;32305;46.410;17.394;2023-05-18T07:50:20;22.50;47.10
43561;DHT22;32305;46.410;17.394;2023-05-18T07:52:47;22.50;47.00
43561;DHT22;32305;46.410;17.394;2023-05-18T07:55:15;22.60;47.00
43561;DHT22;32305;46.410;17.394;2023-05-18T07:57:46;22.60;47.00
43561;DHT22;32305;46.410;17.394;2023-05-18T08:00:13;22.60;47.00
43561;DHT22;32305;46.410;17.394;2023-05-18T08:02:42;22.70;46.90
43561;DHT22;32305;46.410;17.394;2023-05-18T08:05:11;22.70;46.80
43561;DHT22;32305;46.410;17.394;2023-05-18T08:07:38;22.70;46.80
43561;DHT22;32305;46.410;17.394;2023-05-18T08:10:05;22.80;46.80
43561;DHT22;32305;46.410;17.394;2023-05-18T08:12:32;22.80;46.90
43561;DHT22;32305;46.410;17.394;2023-05-18T08:14:59;22.90;47.00
43561;DHT22;32305;46.410;17.394;2023-05-18T08:17:27;22.90;47.00
43561;DHT22;32305;46.410;17.394;2023-05-18T08:19:55;22.90;46.90
43561;DHT22;32305;46.410;17.394;2023-05-18T08:22:22;23.00;47.00
43561;DHT22;32305;46.410;17.394;2023-05-18T08:24:50;23.00;47.00
43561;DHT22;32305;46.410;17.394;2023-05-18T08:27:17;23.00;46.90
43561;DHT22;32305;46.410;17.394;2023-05-18T08:29:46;23.00;46.90
43561;DHT22;32305;46.410;17.394;2023-05-18T08:32:13;23.00;47.00
43561;DHT22;32305;46.410;17.394;2023-05-18T08:34:40;23.10;47.10
43561;DHT22;32305;46.410;17.394;2023-05-18T08:37:08;23.10;47.10
43561;DHT22;32305;46.410;17.394;2023-05-18T08:39:35;23.10;47.00
43561;DHT22;32305;46.410;17.394;2023-05-18T08:42:15;23.10;47.00
43561;DHT22;32305;46.410;17.394;2023-05-18T08:47:35;23.20;46.80
43561;DHT22;32305;46.410;17.394;2023-05-18T08:50:04;23.30;46.80
43561;DHT22;32305;46.410;17.394;2023-05-18T08:52:35;23.30;46.70
43561;DHT22;32305;46.410;17.394;2023-05-18T08:55:05;23.30;46.70
43561;DHT22;32305;46.410;17.394;2023-05-18T08:57:36;23.30;46.60
43561;DHT22;32305;46.410;17.394;2023-05-18T09:00:06;23.40;46.60
43561;DHT22;32305;46.410;17.394;2023-05-18T09:02:34;23.40;44.20
43561;DHT22;32305;46.410;17.394;2023-05-18T09:05:02;23.30;42.90
43561;DHT22;32305;46.410;17.394;2023-05-18T09:07:31;23.00;42.20
43561;DHT22;32305;46.410;17.394;2023-05-18T09:09:59;22.70;42.60
43561;DHT22;32305;46.410;17.394;2023-05-18T09:12:27;22.50;43.70
43561;DHT22;32305;46.410;17.394;2023-05-18T09:14:54;22.50;44.50
43561;DHT22;32305;46.410;17.394;2023-05-18T09:17:22;22.50;45.10
43561;DHT22;32305;46.410;17.394;2023-05-18T09:19:50;22.60;45.40
43561;DHT22;32305;46.410;17.394;2023-05-18T09:22:17;22.60;45.60
43561;DHT22;32305;46.410;17.394;2023-05-18T09:24:45;22.70;45.70
43561;DHT22;32305;46.410;17.394;2023-05-18T09:27:13;22.80;45.80
43561;DHT22;32305;46.410;17.394;2023-05-18T09:29:55;22.80;45.80
43561;DHT22;32305;46.410;17.394;2023-05-18T09:32:23;23.00;45.80
43561;DHT22;32305;46.410;17.394;2023-05-18T09:34:52;23.00;45.80
43561;DHT22;32305;46.410;17.394;2023-05-18T09:37:20;23.10;45.80
43561;DHT22;32305;46.410;17.394;2023-05-18T09:39:57;23.10;45.70
43561;DHT22;32305;46.410;17.394;2023-05-18T09:42:43;23.10;45.70
43561;DHT22;32305;46.410;17.394;2023-05-18T09:45:16;23.20;45.70
43561;DHT22;32305;46.410;17.394;2023-05-18T09:47:45;23.20;45.70
43561;DHT22;32305;46.410;17.394;2023-05-18T09:50:12;23.30;45.60
43561;DHT22;32305;46.410;17.394;2023-05-18T09:52:41;23.30;45.70
43561;DHT22;32305;46.410;17.394;2023-05-18T09:55:10;23.30;45.60
43561;DHT22;32305;46.410;17.394;2023-05-18T09:57:40;23.30;45.50
43561;DHT22;32305;46.410;17.394;2023-05-18T10:00:09;23.30;46.00
43561;DHT22;32305;46.410;17.394;2023-05-18T10:02:41;23.30;45.40
43561;DHT22;32305;46.410;17.394;2023-05-18T10:05:20;23.30;45.20
43561;DHT22;32305;46.410;17.394;2023-05-18T10:07:51;23.30;43.20
43561;DHT22;32305;46.410;17.394;2023-05-18T10:10:20;23.10;43.60
43561;DHT22;32305;46.410;17.394;2023-05-18T10:12:52;23.00;43.60
43561;DHT22;32305;46.410;17.394;2023-05-18T10:15:22;22.90;44.00
43561;DHT22;32305;46.410;17.394;2023-05-18T10:17:50;22.80;44.70
43561;DHT22;32305;46.410;17.394;2023-05-18T10:20:22;22.80;44.90
43561;DHT22;32305;46.410;17.394;2023-05-18T10:22:57;22.80;45.00
43561;DHT22;32305;46.410;17.394;2023-05-18T10:25:28;22.90;45.10
43561;DHT22;32305;46.410;17.394;2023-05-18T10:27:56;22.90;45.00
43561;DHT22;32305;46.410;17.394;2023-05-18T10:30:25;22.90;45.00
43561;DHT22;32305;46.410;17.394;2023-05-18T10:32:54;23.00;45.00
43561;DHT22;32305;46.410;17.394;2023-05-18T10:35:23;23.00;45.00
43561;DHT22;32305;46.410;17.394;2023-05-18T10:37:54;23.00;45.00
43561;DHT22;32305;46.410;17.394;2023-05-18T10:40:23;23.00;44.90
43561;DHT22;32305;46.410;17.394;2023-05-18T10:42:51;23.10;45.00
43561;DHT22;32305;46.410;17.394;2023-05-18T10:45:19;23.10;45.00
43561;DHT22;32305;46.410;17.394;2023-05-18T10:47:47;23.10;44.90
43561;DHT22;32305;46.410;17.394;2023-05-18T10:50:22;23.10;44.80
43561;DHT22;32305;46.410;17.394;2023-05-18T10:52:50;23.10;44.80
43561;DHT22;32305;46.410;17.394;2023-05-18T10:55:18;23.20;45.00
43561;DHT22;32305;46.410;17.394;2023-05-18T10:57:54;23.10;45.00
43561;DHT22;32305;46.410;17.394;2023-05-18T11:00:23;23.10;45.10
43561;DHT22;32305;46.410;17.394;2023-05-18T11:02:51;23.20;45.20
43561;DHT22;32305;46.410;17.394;2023-05-18T11:05:25;23.20;45.20
43561;DHT22;32305;46.410;17.394;2023-05-18T11:08:02;23.20;45.30
43561;DHT22;32305;46.410;17.394;2023-05-18T11:10:41;23.20;45.30
43561;DHT22;32305;46.410;17.394;2023-05-18T11:13:09;23.30;45.40
43561;DHT22;32305;46.410;17.394;2023-05-18T11:16:03;23.30;45.40
43561;DHT22;32305;46.410;17.394;2023-05-18T11:18:45;23.30;45.40
43561;DHT22;32305;46.410;17.394;2023-05-18T11:21:30;23.30;45.50
43561;DHT22;32305;46.410;17.394;2023-05-18T11:24:21;23.30;45.50
43561;DHT22;32305;46.410;17.394;2023-05-18T11:27:15;23.30;45.40
43561;DHT22;32305;46.410;17.394;2023-05-18T11:29:43;23.30;45.50
43561;DHT22;32305;46.410;17.394;2023-05-18T11:32:22;23.30;45.60
43561;DHT22;32305;46.410;17.394;2023-05-18T11:34:56;23.40;45.80
43561;DHT22;32305;46.410;17.394;2023-05-18T11:37:46;23.40;45.80
43561;DHT22;32305;46.410;17.394;2023-05-18T11:40:43;23.40;45.80
43561;DHT22;32305;46.410;17.394;2023-05-18T11:43:22;23.40;45.70
43561;DHT22;32305;46.410;17.394;2023-05-18T11:45:55;23.40;45.70
43561;DHT22;32305;46.410;17.394;2023-05-18T11:48:27;23.40;45.60
43561;DHT22;32305;46.410;17.394;2023-05-18T11:50:58;23.40;45.50
43561;DHT22;32305;46.410;17.394;2023-05-18T11:53:26;23.40;45.60
43561;DHT22;32305;46.410;17.394;2023-05-18T11:55:55;23.50;45.60
43561;DHT22;32305;46.410;17.394;2023-05-18T11:58:25;23.50;45.70
43561;DHT22;32305;46.410;17.394;2023-05-18T12:00:53;23.50;45.60
43561;DHT22;32305;46.410;17.394;2023-05-18T12:03:25;23.50;45.60
43561;DHT22;32305;46.410;17.394;2023-05-18T12:05:57;23.50;45.70
43561;DHT22;32305;46.410;17.394;2023-05-18T12:08:26;23.50;45.70
43561;DHT22;32305;46.410;17.394;2023-05-18T12:10:55;23.50;45.60
43561;DHT22;32305;46.410;17.394;2023-05-18T12:13:23;23.50;45.60
43561;DHT22;32305;46.410;17.394;2023-05-18T12:15:51;23.50;45.60
43561;DHT22;32305;46.410;17.394;2023-05-18T12:18:18;23.50;45.70
43561;DHT22;32305;46.410;17.394;2023-05-18T12:20:48;23.50;45.90
43561;DHT22;32305;46.410;17.394;2023-05-18T12:23:15;23.50;46.40
43561;DHT22;32305;46.410;17.394;2023-05-18T12:25:42;23.50;45.80
43561;DHT22;32305;46.410;17.394;2023-05-18T12:28:09;23.50;45.80
43561;DHT22;32305;46.410;17.394;2023-05-18T12:30:36;23.50;45.80
43561;DHT22;32305;46.410;17.394;2023-05-18T12:33:05;23.50;45.90
43561;DHT22;32305;46.410;17.394;2023-05-18T12:35:33;23.50;45.90
43561;DHT22;32305;46.410;17.394;2023-05-18T12:38:01;23.50;45.90
43561;DHT22;32305;46.410;17.394;2023-05-18T12:40:36;23.50;45.90
43561;DHT22;32305;46.410;17.394;2023-05-18T12:43:11;23.50;46.00
43561;DHT22;32305;46.410;17.394;2023-05-18T12:45:39;23.60;46.00
43561;DHT22;32305;46.410;17.394;2023-05-18T12:48:09;23.60;45.90
43561;DHT22;32305;46.410;17.394;2023-05-18T12:50:47;23.60;45.90
43561;DHT22;32305;46.410;17.394;2023-05-18T12:53:16;23.60;45.80
43561;DHT22;32305;46.410;17.394;2023-05-18T12:55:43;23.60;45.80
43561;DHT22;32305;46.410;17.394;2023-05-18T12:58:13;23.60;45.70
43561;DHT22;32305;46.410;17.394;2023-05-18T13:00:44;23.60;45.70
43561;DHT22;32305;46.410;17.394;2023-05-18T13:03:14;23.60;45.70
43561;DHT22;32305;46.410;17.394;2023-05-18T13:05:43;23.70;45.60
43561;DHT22;32305;46.410;17.394;2023-05-18T13:08:15;23.70;45.60
43561;DHT22;32305;46.410;17.394;2023-05-18T13:10:45;23.70;45.60
43561;DHT22;32305;46.410;17.394;2023-05-18T13:13:21;23.70;45.60
43561;DHT22;32305;46.410;17.394;2023-05-18T13:15:49;23.70;45.50
43561;DHT22;32305;46.410;17.394;2023-05-18T13:18:17;23.70;45.40
43561;DHT22;32305;46.410;17.394;2023-05-18T13:20:47;23.70;45.60
43561;DHT22;32305;46.410;17.394;2023-05-18T13:23:19;23.80;45.70
43561;DHT22;32305;46.410;17.394;2023-05-18T13:25:47;23.80;45.60
43561;DHT22;32305;46.410;17.394;2023-05-18T13:28:16;23.80;45.60
43561;DHT22;32305;46.410;17.394;2023-05-18T13:30:45;23.80;45.40
43561;DHT22;32305;46.410;17.394;2023-05-18T13:33:13;23.80;45.20
43561;DHT22;32305;46.410;17.394;2023-05-18T13:35:41;23.90;45.30
43561;DHT22;32305;46.410;17.394;2023-05-18T13:38:10;23.90;45.40
43561;DHT22;32305;46.410;17.394;2023-05-18T13:40:38;23.90;45.60
43561;DHT22;32305;46.410;17.394;2023-05-18T13:43:05;23.90;45.70
43561;DHT22;32305;46.410;17.394;2023-05-18T13:45:34;23.90;45.70
43561;DHT22;32305;46.410;17.394;2023-05-18T13:48:02;24.00;45.70
43561;DHT22;32305;46.410;17.394;2023-05-18T13:50:36;24.00;45.60
43561;DHT22;32305;46.410;17.394;2023-05-18T13:53:03;24.00;45.40
43561;DHT22;32305;46.410;17.394;2023-05-18T13:55:30;24.00;45.40
43561;DHT22;32305;46.410;17.394;2023-05-18T13:57:59;24.00;45.40
43561;DHT22;32305;46.410;17.394;2023-05-18T14:00:26;24.00;45.40
43561;DHT22;32305;46.410;17.394;2023-05-18T14:02:54;24.00;44.60
43561;DHT22;32305;46.410;17.394;2023-05-18T14:05:22;23.90;43.60
43561;DHT22;32305;46.410;17.394;2023-05-18T14:07:50;23.80;44.40
43561;DHT22;32305;46.410;17.394;2023-05-18T14:10:20;23.80;44.80
43561;DHT22;32305;46.410;17.394;2023-05-18T14:12:48;23.70;44.90
43561;DHT22;32305;46.410;17.394;2023-05-18T14:15:15;23.70;45.70
43561;DHT22;32305;46.410;17.394;2023-05-18T14:17:42;23.70;45.40
43561;DHT22;32305;46.410;17.394;2023-05-18T14:20:11;23.80;45.60
43561;DHT22;32305;46.410;17.394;2023-05-18T14:22:38;23.80;45.70
43561;DHT22;32305;46.410;17.394;2023-05-18T14:25:06;23.90;45.80
43561;DHT22;32305;46.410;17.394;2023-05-18T14:27:34;23.90;45.80
43561;DHT22;32305;46.410;17.394;2023-05-18T14:30:01;23.90;46.00
43561;DHT22;32305;46.410;17.394;2023-05-18T14:32:28;23.90;46.00
43561;DHT22;32305;46.410;17.394;2023-05-18T14:34:55;23.90;46.10
43561;DHT22;32305;46.410;17.394;2023-05-18T14:37:24;23.90;46.30
43561;DHT22;32305;46.410;17.394;2023-05-18T14:39:51;23.90;46.30
43561;DHT22;32305;46.410;17.394;2023-05-18T14:42:19;23.90;46.20
43561;DHT22;32305;46.410;17.394;2023-05-18T14:44:46;23.90;46.10
43561;DHT22;32305;46.410;17.394;2023-05-18T14:47:13;23.90;46.10
43561;DHT22;32305;46.410;17.394;2023-05-18T14:49:41;23.90;46.30
43561;DHT22;32305;46.410;17.394;2023-05-18T14:52:08;23.80;46.40
43561;DHT22;32305;46.410;17.394;2023-05-18T14:54:35;23.80;46.50
43561;DHT22;32305;46.410;17.394;2023-05-18T14:57:03;23.80;46.50
43561;DHT22;32305;46.410;17.394;2023-05-18T14:59:30;23.80;46.40
43561;DHT22;32305;46.410;17.394;2023-05-18T15:01:57;23.80;46.50
43561;DHT22;32305;46.410;17.394;2023-05-18T15:04:24;23.80;46.50
43561;DHT22;32305;46.410;17.394;2023-05-18T15:06:52;23.80;46.50
43561;DHT22;32305;46.410;17.394;2023-05-18T15:09:19;23.70;46.50
43561;DHT22;32305;46.410;17.394;2023-05-18T15:11:46;23.70;46.60
43561;DHT22;32305;46.410;17.394;2023-05-18T15:14:13;23.70;46.90
43561;DHT22;32305;46.410;17.394;2023-05-18T15:16:41;23.70;47.20
43561;DHT22;32305;46.410;17.394;2023-05-18T15:19:09;23.70;47.60
43561;DHT22;32305;46.410;17.394;2023-05-18T15:21:36;23.70;47.80
43561;DHT22;32305;46.410;17.394;2023-05-18T15:24:03;23.70;48.10
43561;DHT22;32305;46.410;17.394;2023-05-18T15:26:30;23.60;48.20
43561;DHT22;32305;46.410;17.394;2023-05-18T15:28:57;23.70;48.60
43561;DHT22;32305;46.410;17.394;2023-05-18T15:31:26;23.60;48.90
43561;DHT22;32305;46.410;17.394;2023-05-18T15:33:53;23.60;49.60